< < Back
Terminal Aerodrome Forecast


Current Version              Previous Versions:   1  2  3  4  5  6  7  8  9  

Terminal Aerodrome Forecast

049
FTUS42 KJAX 271516 AAB
TAFSSI
TAF AMD
KSSI 271516Z 2715/2812 24010KT P6SM VCSH BKN015 OVC050
     FM271700 25014G22KT 5SM -SHRA VCTS BKN030CB
     FM272100 28012G20KT P6SM VCSH SCT025 OVC040
     FM280000 28009KT P6SM SCT050
     FM280400 30011KT P6SM SKC=



Latest METAR

708
SAUS70 KWBC 271700 RRC
MTRSSI
METAR KSSI 271653Z AUTO 23010KT 10SM -RA SCT021 BKN026 OVC046 21/17
A2976 RMK AO2 RAB08E17B50 SLP077 P0000 T02110172


USA.gov is the U.S. government's official web portal to all federal, state and local government web resources and services.